Time;durP1;ratioP1;P1;durP2;ratioP2;P2;SDS_P1;SDS_P2;PMS_P1;PMS_P2;Temp;Humidity;BMP_temperature;BMP_pressure;BME280_temperature;BME280_humidity;BME280_pressure;Samples;Min_cycle;Max_cycle;Signal;HPM_P1;HPM_P2
2022/03/29 00:01:22;;;;;;;;;35.00;31.50;;;;;;;;5074896;28;45400;-69
2022/03/29 00:03:47;;;;;;;;;38.50;34.75;;;;;;;;5073881;28;48711;-69
2022/03/29 00:06:12;;;;;;;;;38.25;34.50;;;;;;;;5075146;28;45633;-69
2022/03/29 00:08:37;;;;;;;;;41.25;35.50;;;;;;;;5075351;28;45380;-69
2022/03/29 00:11:02;;;;;;;;;41.50;33.00;;;;;;;;5073958;28;45384;-68
2022/03/29 00:13:28;;;;;;;;;33.00;31.50;;;;;;;;5075795;28;46791;-69
2022/03/29 00:15:53;;;;;;;;;28.25;28.25;;;;;;;;5075216;28;45594;-69
2022/03/29 00:18:18;;;;;;;;;32.75;30.75;;;;;;;;5075091;28;45395;-69
2022/03/29 00:20:43;;;;;;;;;31.25;30.50;;;;;;;;5075239;28;45528;-68
2022/03/29 00:23:09;;;;;;;;;33.50;31.00;;;;;;;;5075158;27;45827;-68
2022/03/29 00:25:34;;;;;;;;;37.75;32.00;;;;;;;;5074456;28;46185;-66
2022/03/29 00:27:59;;;;;;;;;31.00;30.00;;;;;;;;5073555;28;45543;-67
2022/03/29 00:30:25;;;;;;;;;36.25;30.50;;;;;;;;5074973;28;45360;-66
2022/03/29 00:32:50;;;;;;;;;37.00;31.75;;;;;;;;5067623;28;48571;-67
2022/03/29 00:35:15;;;;;;;;;37.50;31.50;;;;;;;;5074716;27;45565;-66
2022/03/29 00:37:41;;;;;;;;;37.25;32.00;;;;;;;;5075173;28;45351;-68
2022/03/29 00:40:08;;;;;;;;;31.25;29.25;;;;;;;;5075250;27;45511;-67
2022/03/29 00:42:33;;;;;;;;;35.75;32.50;;;;;;;;5074243;27;47371;-69
2022/03/29 00:44:58;;;;;;;;;33.75;30.75;;;;;;;;5074525;27;45494;-71
2022/03/29 00:47:24;;;;;;;;;35.00;31.50;;;;;;;;5073272;28;45412;-69
2022/03/29 00:49:49;;;;;;;;;36.25;31.25;;;;;;;;5074997;27;45526;-69
2022/03/29 00:52:15;;;;;;;;;35.25;32.50;;;;;;;;5075171;28;45951;-69
2022/03/29 00:54:41;;;;;;;;;45.50;35.00;;;;;;;;5074073;27;45446;-69
2022/03/29 00:57:07;;;;;;;;;31.25;30.25;;;;;;;;5074531;27;45463;-69
2022/03/29 00:59:32;;;;;;;;;34.75;32.25;;;;;;;;5074595;27;45799;-69
2022/03/29 01:01:58;;;;;;;;;39.50;35.00;;;;;;;;5072237;28;45881;-69
2022/03/29 01:04:23;;;;;;;;;35.50;30.00;;;;;;;;5074217;28;45451;-67
2022/03/29 01:06:49;;;;;;;;;30.50;28.25;;;;;;;;5074243;27;45544;-67
2022/03/29 01:09:15;;;;;;;;;41.75;36.25;;;;;;;;5074290;28;45519;-67
2022/03/29 01:11:40;;;;;;;;;45.50;34.00;;;;;;;;5071936;28;46444;-68
2022/03/29 01:14:06;;;;;;;;;41.25;33.75;;;;;;;;5071515;28;46154;-67
2022/03/29 01:19:16;;;;;;;;;42.00;33.75;;;;;;;;5074695;28;45455;-66
2022/03/29 01:21:44;;;;;;;;;39.75;32.25;;;;;;;;5072756;28;47490;-66
2022/03/29 01:24:11;;;;;;;;;39.00;33.25;;;;;;;;5072496;28;45592;-66
2022/03/29 01:26:36;;;;;;;;;35.75;32.75;;;;;;;;5072842;27;45685;-67
2022/03/29 01:29:01;;;;;;;;;37.50;30.75;;;;;;;;5073470;28;45530;-68
2022/03/29 01:31:28;;;;;;;;;37.25;30.00;;;;;;;;5073092;28;48426;-67
2022/03/29 01:33:54;;;;;;;;;33.50;30.75;;;;;;;;5071971;28;46403;-68
2022/03/29 01:36:19;;;;;;;;;35.50;30.00;;;;;;;;5073299;27;45526;-67
2022/03/29 01:38:44;;;;;;;;;25.00;24.00;;;;;;;;5072616;28;45337;-68
2022/03/29 01:41:10;;;;;;;;;32.50;30.00;;;;;;;;5072769;28;46792;-67
2022/03/29 01:43:35;;;;;;;;;31.25;30.00;;;;;;;;5074636;27;45736;-67
2022/03/29 01:46:01;;;;;;;;;38.50;31.75;;;;;;;;5072409;28;45407;-67
2022/03/29 01:48:26;;;;;;;;;33.25;31.50;;;;;;;;5072471;28;45582;-67
2022/03/29 01:50:51;;;;;;;;;36.00;30.25;;;;;;;;5073609;28;46424;-68
2022/03/29 01:53:26;;;;;;;;;39.25;33.00;;;;;;;;5073909;27;45422;-68
2022/03/29 01:55:56;;;;;;;;;31.50;27.50;;;;;;;;5072877;28;45512;-68
2022/03/29 01:58:22;;;;;;;;;40.75;32.00;;;;;;;;5072700;28;45405;-68
2022/03/29 02:00:47;;;;;;;;;36.50;32.25;;;;;;;;5072376;27;46464;-66
2022/03/29 02:03:13;;;;;;;;;33.50;30.25;;;;;;;;5072262;28;45575;-66
2022/03/29 02:05:38;;;;;;;;;34.00;30.25;;;;;;;;5072563;28;45504;-69
2022/03/29 02:08:03;;;;;;;;;30.50;30.00;;;;;;;;5077195;28;45410;-67
2022/03/29 02:10:29;;;;;;;;;33.50;28.25;;;;;;;;5077488;28;46412;-68
2022/03/29 02:12:54;;;;;;;;;33.75;28.75;;;;;;;;5076892;27;45272;-67
2022/03/29 02:15:19;;;;;;;;;27.50;27.00;;;;;;;;5076703;28;45403;-67
2022/03/29 02:17:48;;;;;;;;;33.75;32.25;;;;;;;;5076305;27;45470;-68
2022/03/29 02:20:14;;;;;;;;;30.00;28.25;;;;;;;;5058558;28;45528;-68
2022/03/29 02:22:39;;;;;;;;;28.00;26.00;;;;;;;;5077280;27;45630;-68
2022/03/29 02:25:05;;;;;;;;;35.75;32.00;;;;;;;;5076678;27;45426;-68
2022/03/29 02:27:30;;;;;;;;;28.75;28.75;;;;;;;;5074869;28;45543;-68
2022/03/29 02:29:55;;;;;;;;;35.75;29.25;;;;;;;;5076171;28;45805;-68
2022/03/29 02:32:20;;;;;;;;;33.50;28.50;;;;;;;;5075904;28;45403;-69
2022/03/29 02:34:45;;;;;;;;;26.75;25.25;;;;;;;;5076122;27;45510;-69
2022/03/29 02:37:11;;;;;;;;;33.50;31.00;;;;;;;;5075165;28;45445;-68
2022/03/29 02:39:37;;;;;;;;;32.00;30.00;;;;;;;;5076128;27;46463;-69
2022/03/29 02:42:02;;;;;;;;;30.25;27.75;;;;;;;;5076758;27;45618;-70
2022/03/29 02:44:28;;;;;;;;;22.00;19.00;;;;;;;;5075381;27;45978;-70
2022/03/29 02:46:53;;;;;;;;;25.00;23.00;;;;;;;;5076583;27;45415;-69
2022/03/29 02:49:19;;;;;;;;;25.50;24.50;;;;;;;;5077278;27;45997;-68
2022/03/29 02:51:44;;;;;;;;;26.75;24.25;;;;;;;;5075879;28;45487;-67
2022/03/29 02:54:09;;;;;;;;;26.75;23.75;;;;;;;;5069183;28;45459;-66
2022/03/29 02:56:34;;;;;;;;;26.25;25.50;;;;;;;;5076683;28;45449;-68
2022/03/29 02:59:00;;;;;;;;;27.25;25.00;;;;;;;;5076725;28;45888;-69
2022/03/29 03:01:28;;;;;;;;;20.50;19.00;;;;;;;;5076245;27;45447;-69
2022/03/29 03:03:54;;;;;;;;;29.75;27.00;;;;;;;;5069119;28;47907;-69
2022/03/29 03:06:19;;;;;;;;;24.25;22.25;;;;;;;;5074901;28;45581;-69
2022/03/29 03:08:45;;;;;;;;;21.00;18.75;;;;;;;;5073945;28;47603;-68
2022/03/29 03:11:10;;;;;;;;;26.75;24.25;;;;;;;;5073563;28;45492;-69
2022/03/29 03:13:35;;;;;;;;;27.00;23.50;;;;;;;;5075415;28;45472;-68
2022/03/29 03:16:01;;;;;;;;;25.00;23.25;;;;;;;;5074216;28;45598;-68
2022/03/29 03:18:26;;;;;;;;;23.75;21.50;;;;;;;;5073599;27;46813;-69
2022/03/29 03:20:51;;;;;;;;;25.50;23.50;;;;;;;;5073199;28;45472;-69
2022/03/29 03:23:16;;;;;;;;;6.75;3.25;;;;;;;;5092267;27;45337;-68
2022/03/29 03:25:41;;;;;;;;;27.75;24.25;;;;;;;;5073829;28;45504;-69
2022/03/29 03:28:07;;;;;;;;;22.50;22.50;;;;;;;;5075437;28;46069;-69
2022/03/29 03:30:33;;;;;;;;;23.25;21.00;;;;;;;;5067033;28;46107;-68
2022/03/29 03:32:58;;;;;;;;;26.00;24.75;;;;;;;;5073179;28;45550;-69
2022/03/29 03:35:23;;;;;;;;;24.50;22.75;;;;;;;;5074957;27;45455;-69
2022/03/29 03:37:49;;;;;;;;;28.25;25.25;;;;;;;;5073508;27;46016;-68
2022/03/29 03:40:15;;;;;;;;;27.25;23.75;;;;;;;;5076287;27;45535;-69
2022/03/29 03:42:40;;;;;;;;;26.50;22.75;;;;;;;;5068527;28;46266;-67
2022/03/29 03:45:06;;;;;;;;;26.00;23.50;;;;;;;;5075255;27;45447;-67
2022/03/29 03:47:32;;;;;;;;;25.50;23.75;;;;;;;;5073251;28;47617;-66
2022/03/29 03:49:57;;;;;;;;;26.25;25.25;;;;;;;;5074459;28;45432;-66
2022/03/29 03:52:22;;;;;;;;;22.00;20.00;;;;;;;;5076483;28;45333;-66
2022/03/29 03:54:47;;;;;;;;;26.25;21.50;;;;;;;;5075744;28;45471;-67
2022/03/29 03:57:13;;;;;;;;;22.25;21.00;;;;;;;;5074732;28;45683;-70
2022/03/29 03:59:38;;;;;;;;;24.25;23.25;;;;;;;;5075440;27;45515;-68
2022/03/29 04:02:03;;;;;;;;;29.25;22.50;;;;;;;;5073821;28;45912;-67
2022/03/29 04:04:29;;;;;;;;;26.75;26.00;;;;;;;;5074820;28;45407;-68
2022/03/29 04:06:54;;;;;;;;;29.50;23.00;;;;;;;;5073862;28;47549;-67
2022/03/29 04:09:20;;;;;;;;;23.25;23.00;;;;;;;;5073793;27;45440;-66
2022/03/29 04:11:46;;;;;;;;;26.25;23.00;;;;;;;;5074990;28;45786;-68
2022/03/29 04:14:11;;;;;;;;;19.00;15.00;;;;;;;;5075441;28;45399;-67
2022/03/29 04:16:36;;;;;;;;;24.75;21.25;;;;;;;;5075908;27;45599;-68
2022/03/29 04:19:01;;;;;;;;;25.50;25.50;;;;;;;;5065677;28;45536;-67
2022/03/29 04:21:27;;;;;;;;;24.50;23.75;;;;;;;;5075102;27;45724;-66
2022/03/29 04:23:52;;;;;;;;;26.00;23.75;;;;;;;;5074411;28;45521;-67
2022/03/29 04:26:17;;;;;;;;;19.75;18.75;;;;;;;;5073576;28;47534;-67
2022/03/29 04:28:42;;;;;;;;;26.25;22.25;;;;;;;;5075057;27;45427;-68
2022/03/29 04:31:08;;;;;;;;;24.25;19.25;;;;;;;;5075273;28;45434;-68
2022/03/29 04:33:34;;;;;;;;;25.00;21.50;;;;;;;;5065750;28;45576;-67
2022/03/29 04:35:59;;;;;;;;;26.00;24.00;;;;;;;;5074596;28;45957;-67
2022/03/29 04:38:25;;;;;;;;;23.25;23.25;;;;;;;;5074974;28;45523;-68
2022/03/29 04:40:50;;;;;;;;;27.50;24.75;;;;;;;;5073810;28;45455;-67
2022/03/29 04:43:15;;;;;;;;;28.00;22.50;;;;;;;;5074147;27;45426;-66
2022/03/29 04:45:41;;;;;;;;;24.25;22.50;;;;;;;;5067327;28;46367;-68
2022/03/29 04:48:06;;;;;;;;;26.75;23.00;;;;;;;;5072665;28;45689;-68
2022/03/29 04:50:32;;;;;;;;;25.75;23.75;;;;;;;;5074962;27;45360;-68
2022/03/29 04:52:57;;;;;;;;;28.25;25.75;;;;;;;;5073757;28;45653;-69
2022/03/29 04:55:22;;;;;;;;;27.50;27.50;;;;;;;;5075296;28;45856;-66
2022/03/29 04:57:49;;;;;;;;;23.50;23.25;;;;;;;;5072652;28;46391;-68
2022/03/29 05:00:16;;;;;;;;;25.75;25.00;;;;;;;;5074078;27;45365;-67
2022/03/29 05:02:43;;;;;;;;;26.25;23.50;;;;;;;;5073880;27;45295;-69
2022/03/29 05:05:10;;;;;;;;;30.75;24.50;;;;;;;;5071612;28;48729;-68
2022/03/29 05:07:35;;;;;;;;;22.75;21.75;;;;;;;;5067567;28;46173;-69
2022/03/29 05:10:00;;;;;;;;;32.75;23.50;;;;;;;;5067432;28;45714;-68
2022/03/29 05:12:26;;;;;;;;;27.25;22.50;;;;;;;;5072059;28;45420;-68
2022/03/29 05:14:51;;;;;;;;;27.00;26.00;;;;;;;;5065328;27;45648;-67
2022/03/29 05:17:17;;;;;;;;;21.50;21.50;;;;;;;;5073743;28;45391;-67
2022/03/29 05:19:42;;;;;;;;;18.25;18.25;;;;;;;;5073932;27;45371;-68
2022/03/29 05:22:07;;;;;;;;;29.00;24.75;;;;;;;;5073232;28;45695;-68
2022/03/29 05:24:32;;;;;;;;;29.50;27.50;;;;;;;;5073707;28;45990;-69
2022/03/29 05:26:57;;;;;;;;;26.50;25.25;;;;;;;;5072042;28;46885;-68
2022/03/29 05:29:25;;;;;;;;;28.00;25.75;;;;;;;;5072959;27;45364;-68
2022/03/29 05:31:50;;;;;;;;;28.50;25.50;;;;;;;;5072798;28;45529;-68
2022/03/29 05:34:15;;;;;;;;;28.75;26.75;;;;;;;;5073608;28;45395;-69
2022/03/29 05:36:44;;;;;;;;;27.75;23.50;;;;;;;;5074036;28;45450;-69
2022/03/29 05:39:09;;;;;;;;;33.75;28.50;;;;;;;;5073948;27;45416;-68
2022/03/29 05:41:34;;;;;;;;;31.25;25.25;;;;;;;;5072708;27;45623;-69
2022/03/29 05:43:59;;;;;;;;;34.25;29.75;;;;;;;;5073383;27;45851;-70
2022/03/29 05:49:08;;;;;;;;;25.75;23.75;;;;;;;;5074212;28;45743;-68
2022/03/29 05:51:33;;;;;;;;;19.00;16.50;;;;;;;;5073773;28;45501;-68
2022/03/29 05:54:01;;;;;;;;;31.50;29.25;;;;;;;;5073532;28;45521;-69
2022/03/29 05:56:26;;;;;;;;;31.00;27.25;;;;;;;;5073965;28;45460;-67
2022/03/29 05:58:51;;;;;;;;;29.50;25.75;;;;;;;;5072741;28;45715;-69
2022/03/29 06:01:18;;;;;;;;;28.75;25.75;;;;;;;;5074495;28;45598;-69
2022/03/29 06:03:43;;;;;;;;;31.75;28.75;;;;;;;;5072196;28;45733;-68
2022/03/29 06:06:08;;;;;;;;;33.25;28.25;;;;;;;;5073686;28;45924;-68
2022/03/29 06:08:34;;;;;;;;;33.50;27.75;;;;;;;;5073651;28;45386;-68
2022/03/29 06:10:59;;;;;;;;;27.00;24.25;;;;;;;;5073347;27;45450;-68
2022/03/29 06:13:25;;;;;;;;;22.00;21.00;;;;;;;;5072742;28;47489;-68
2022/03/29 06:15:51;;;;;;;;;29.00;25.75;;;;;;;;5073680;27;45378;-69
2022/03/29 06:18:16;;;;;;;;;29.00;24.50;;;;;;;;5073601;28;45576;-69
2022/03/29 06:20:41;;;;;;;;;31.50;30.75;;;;;;;;5073419;28;45686;-69
2022/03/29 06:23:06;;;;;;;;;33.50;29.75;;;;;;;;5071868;28;47721;-68
2022/03/29 06:25:35;;;;;;;;;32.25;27.25;;;;;;;;5074063;28;45475;-69
2022/03/29 06:28:01;;;;;;;;;31.00;27.00;;;;;;;;5073367;28;45514;-69
2022/03/29 06:30:26;;;;;;;;;24.50;20.50;;;;;;;;5064548;28;45417;-69
2022/03/29 06:32:52;;;;;;;;;34.75;28.50;;;;;;;;5072988;28;46256;-69
2022/03/29 06:35:23;;;;;;;;;31.00;29.50;;;;;;;;5073340;27;45574;-68
2022/03/29 06:37:53;;;;;;;;;30.00;26.00;;;;;;;;5073540;27;45430;-69
2022/03/29 06:40:18;;;;;;;;;35.25;31.50;;;;;;;;5071813;28;45381;-69
2022/03/29 06:42:44;;;;;;;;;36.75;30.25;;;;;;;;5073000;27;46547;-70
2022/03/29 06:45:09;;;;;;;;;29.25;26.50;;;;;;;;5072782;28;45413;-69
2022/03/29 06:47:36;;;;;;;;;26.75;24.75;;;;;;;;5073206;27;45479;-69
2022/03/29 06:50:03;;;;;;;;;29.50;28.75;;;;;;;;5073205;27;45652;-69
2022/03/29 06:52:33;;;;;;;;;33.50;26.25;;;;;;;;5073219;28;47783;-69
2022/03/29 06:54:58;;;;;;;;;29.75;26.75;;;;;;;;5074960;28;45877;-69
2022/03/29 06:57:25;;;;;;;;;36.25;33.00;;;;;;;;5076420;28;45360;-69
2022/03/29 06:59:50;;;;;;;;;31.50;29.25;;;;;;;;5076676;27;45681;-70
2022/03/29 07:02:15;;;;;;;;;32.75;31.00;;;;;;;;5076358;28;46279;-69
2022/03/29 07:04:41;;;;;;;;;39.25;34.50;;;;;;;;5076703;27;45353;-69
2022/03/29 07:07:06;;;;;;;;;28.75;27.00;;;;;;;;5077070;27;45364;-69
2022/03/29 07:12:15;;;;;;;;;29.50;24.50;;;;;;;;5075985;28;45500;-69
2022/03/29 07:14:40;;;;;;;;;26.50;26.25;;;;;;;;5076198;28;45525;-70
2022/03/29 07:17:10;;;;;;;;;33.50;30.00;;;;;;;;5076581;28;45443;-70
2022/03/29 07:19:35;;;;;;;;;31.25;29.25;;;;;;;;5072801;28;45456;-69
2022/03/29 07:22:00;;;;;;;;;32.75;28.75;;;;;;;;5076069;27;45569;-69
2022/03/29 07:24:25;;;;;;;;;30.25;28.50;;;;;;;;5075441;28;45513;-68
2022/03/29 07:26:50;;;;;;;;;31.50;29.25;;;;;;;;5076114;28;45422;-67
2022/03/29 07:29:16;;;;;;;;;36.50;30.00;;;;;;;;5073387;28;45448;-69
2022/03/29 07:31:42;;;;;;;;;33.75;31.00;;;;;;;;5074932;28;47859;-68
2022/03/29 07:34:07;;;;;;;;;32.25;31.00;;;;;;;;5076468;27;45448;-68
2022/03/29 07:36:32;;;;;;;;;34.50;30.25;;;;;;;;5074782;28;45519;-69
2022/03/29 07:38:57;;;;;;;;;34.00;31.50;;;;;;;;5076172;28;45505;-68
2022/03/29 07:41:23;;;;;;;;;31.00;28.25;;;;;;;;5074671;28;45325;-69
2022/03/29 07:43:48;;;;;;;;;34.00;28.50;;;;;;;;5072522;28;46305;-68
2022/03/29 07:46:13;;;;;;;;;32.25;30.75;;;;;;;;5075515;27;45722;-67
2022/03/29 07:48:39;;;;;;;;;27.25;26.25;;;;;;;;5075827;28;45655;-68
2022/03/29 07:51:05;;;;;;;;;36.50;32.25;;;;;;;;5075520;28;45812;-68
2022/03/29 07:53:30;;;;;;;;;35.00;30.50;;;;;;;;5075711;28;45561;-68
2022/03/29 07:55:56;;;;;;;;;33.50;31.25;;;;;;;;5075673;27;45367;-68
2022/03/29 07:58:21;;;;;;;;;33.00;28.50;;;;;;;;5076346;28;45604;-68
2022/03/29 08:00:50;;;;;;;;;30.25;27.50;;;;;;;;5075448;28;45657;-68
2022/03/29 08:03:16;;;;;;;;;34.75;31.00;;;;;;;;5075395;27;45362;-68
2022/03/29 08:05:42;;;;;;;;;35.50;31.50;;;;;;;;5074698;27;45286;-68
2022/03/29 08:08:10;;;;;;;;;34.75;30.50;;;;;;;;5075685;27;45573;-68
2022/03/29 08:10:35;;;;;;;;;35.50;30.25;;;;;;;;5071658;28;45817;-70
2022/03/29 08:13:01;;;;;;;;;31.75;29.50;;;;;;;;5074012;28;45582;-67
2022/03/29 08:15:27;;;;;;;;;34.25;30.00;;;;;;;;5068067;28;45680;-69
2022/03/29 08:17:53;;;;;;;;;32.25;28.50;;;;;;;;5068111;28;45654;-69
2022/03/29 08:20:19;;;;;;;;;34.25;29.50;;;;;;;;5075213;27;45706;-69
2022/03/29 08:22:47;;;;;;;;;40.00;34.75;;;;;;;;5075548;27;45415;-69
2022/03/29 08:25:13;;;;;;;;;36.25;30.00;;;;;;;;5074996;28;45547;-69
2022/03/29 08:27:39;;;;;;;;;33.50;31.00;;;;;;;;5075118;27;45482;-69
2022/03/29 08:30:04;;;;;;;;;24.00;23.75;;;;;;;;5074932;27;46389;-69
2022/03/29 08:32:31;;;;;;;;;37.00;32.00;;;;;;;;5072281;28;45821;-69
2022/03/29 08:34:56;;;;;;;;;34.25;31.00;;;;;;;;5075358;27;45409;-68
2022/03/29 08:37:22;;;;;;;;;37.75;32.75;;;;;;;;5075866;28;46140;-68
2022/03/29 08:39:47;;;;;;;;;30.25;29.00;;;;;;;;5074511;28;48414;-69
2022/03/29 08:42:14;;;;;;;;;35.00;30.75;;;;;;;;5075291;28;45456;-68
2022/03/29 08:44:40;;;;;;;;;36.00;32.75;;;;;;;;5074719;28;45327;-68
2022/03/29 08:47:06;;;;;;;;;36.25;32.25;;;;;;;;5074833;27;45375;-68
2022/03/29 08:49:31;;;;;;;;;36.75;30.75;;;;;;;;5073878;28;46653;-70
2022/03/29 08:51:57;;;;;;;;;32.50;29.75;;;;;;;;5073370;28;45548;-69
2022/03/29 08:54:22;;;;;;;;;34.00;31.00;;;;;;;;5074545;27;45501;-69
2022/03/29 08:56:47;;;;;;;;;32.25;30.75;;;;;;;;5074556;28;45406;-69
2022/03/29 08:59:12;;;;;;;;;38.50;31.75;;;;;;;;5074719;28;46345;-68
2022/03/29 09:01:38;;;;;;;;;37.75;31.00;;;;;;;;5073608;28;45431;-68
2022/03/29 09:04:03;;;;;;;;;39.25;32.00;;;;;;;;5071057;28;45576;-69
2022/03/29 09:06:29;;;;;;;;;37.25;33.00;;;;;;;;5074560;27;45344;-68
2022/03/29 09:08:54;;;;;;;;;40.00;34.25;;;;;;;;5074300;27;45753;-68
2022/03/29 09:11:20;;;;;;;;;34.00;30.75;;;;;;;;5074338;28;45615;-68
2022/03/29 09:13:46;;;;;;;;;34.75;30.25;;;;;;;;5074683;27;45408;-68
2022/03/29 09:16:30;;;;;;;;;43.75;34.00;;;;;;;;5075370;27;45427;-67
2022/03/29 09:18:56;;;;;;;;;42.00;33.50;;;;;;;;5074212;27;45626;-69
2022/03/29 09:21:24;;;;;;;;;33.50;30.50;;;;;;;;5074111;27;45450;-68
2022/03/29 09:24:06;;;;;;;;;36.25;33.00;;;;;;;;5066967;28;45600;-68
2022/03/29 09:26:32;;;;;;;;;39.50;32.00;;;;;;;;5072913;28;45445;-68
2022/03/29 09:28:58;;;;;;;;;37.50;33.75;;;;;;;;5072985;28;48629;-69
2022/03/29 09:31:25;;;;;;;;;37.00;33.50;;;;;;;;5074841;27;45369;-69
2022/03/29 09:33:51;;;;;;;;;28.75;27.50;;;;;;;;5074123;27;45479;-68
2022/03/29 09:36:20;;;;;;;;;38.50;31.75;;;;;;;;5074090;27;45563;-70
2022/03/29 09:38:47;;;;;;;;;36.00;31.75;;;;;;;;5074179;28;45834;-70
2022/03/29 09:41:20;;;;;;;;;45.75;37.00;;;;;;;;5071281;28;46252;-69
2022/03/29 09:43:57;;;;;;;;;34.50;32.75;;;;;;;;5074245;27;45967;-69
2022/03/29 09:46:22;;;;;;;;;42.25;33.75;;;;;;;;5072671;28;45697;-69
2022/03/29 09:48:48;;;;;;;;;23.75;22.75;;;;;;;;5073801;28;46019;-69
2022/03/29 09:51:14;;;;;;;;;36.75;34.00;;;;;;;;5073775;27;45301;-69
2022/03/29 09:53:43;;;;;;;;;33.75;31.75;;;;;;;;5072455;28;45568;-70
2022/03/29 09:56:10;;;;;;;;;39.25;33.25;;;;;;;;5058141;28;45465;-69
2022/03/29 09:58:35;;;;;;;;;42.00;33.50;;;;;;;;5070184;28;46584;-69
2022/03/29 10:01:01;;;;;;;;;38.25;34.00;;;;;;;;5072483;28;45943;-69
2022/03/29 10:03:27;;;;;;;;;37.50;34.00;;;;;;;;5072344;28;45436;-69
2022/03/29 10:05:53;;;;;;;;;33.25;29.75;;;;;;;;5072101;28;45515;-69
2022/03/29 10:11:06;;;;;;;;;43.25;34.50;;;;;;;;5073316;28;45349;-69
2022/03/29 10:13:32;;;;;;;;;36.50;32.25;;;;;;;;5074287;27;45455;-70
2022/03/29 10:16:00;;;;;;;;;40.50;36.50;;;;;;;;5073248;27;45556;-69
2022/03/29 10:18:27;;;;;;;;;27.50;23.25;;;;;;;;5066062;28;46555;-69
2022/03/29 10:20:54;;;;;;;;;29.25;28.75;;;;;;;;5073197;27;45456;-69
2022/03/29 10:23:22;;;;;;;;;34.00;31.00;;;;;;;;5072173;28;45326;-69
2022/03/29 10:25:48;;;;;;;;;35.00;31.50;;;;;;;;5073441;27;45603;-70
2022/03/29 10:28:14;;;;;;;;;23.75;23.75;;;;;;;;5076068;27;46356;-70
2022/03/29 10:30:41;;;;;;;;;44.00;33.75;;;;;;;;5069438;28;45390;-71
2022/03/29 10:33:16;;;;;;;;;33.50;31.75;;;;;;;;5077107;28;45553;-71
2022/03/29 10:35:59;;;;;;;;;35.25;33.50;;;;;;;;5076831;27;47280;-71
2022/03/29 10:38:42;;;;;;;;;34.25;31.75;;;;;;;;5061623;28;48520;-70
2022/03/29 10:41:28;;;;;;;;;34.25;30.50;;;;;;;;5062839;27;45973;-70
2022/03/29 10:44:01;;;;;;;;;36.50;32.50;;;;;;;;5077240;27;45911;-71
2022/03/29 10:46:37;;;;;;;;;40.75;32.75;;;;;;;;5085903;27;45349;-70
2022/03/29 10:49:24;;;;;;;;;38.25;31.50;;;;;;;;5072717;27;45526;-68
2022/03/29 10:51:59;;;;;;;;;40.25;33.25;;;;;;;;5074627;27;45459;-70
2022/03/29 10:54:24;;;;;;;;;33.50;31.50;;;;;;;;5077653;27;45557;-70
2022/03/29 10:56:57;;;;;;;;;36.00;34.25;;;;;;;;5075067;27;45521;-69
2022/03/29 10:59:23;;;;;;;;;40.00;33.75;;;;;;;;5086148;27;47527;-69
2022/03/29 11:02:06;;;;;;;;;35.75;31.75;;;;;;;;5078926;27;50201;-70
2022/03/29 11:04:31;;;;;;;;;34.25;30.00;;;;;;;;5088334;27;46267;-70
2022/03/29 11:07:14;;;;;;;;;31.00;27.75;;;;;;;;5073474;27;45583;-70
2022/03/29 11:09:40;;;;;;;;;40.75;28.75;;;;;;;;5072517;27;47832;-70
2022/03/29 11:12:06;;;;;;;;;35.50;32.25;;;;;;;;5081261;27;45489;-68
2022/03/29 11:14:35;;;;;;;;;34.00;31.25;;;;;;;;5077294;27;45436;-71
2022/03/29 11:17:00;;;;;;;;;37.25;32.25;;;;;;;;5086906;27;45380;-70
2022/03/29 11:19:46;;;;;;;;;32.50;30.50;;;;;;;;5064885;27;47801;-71
2022/03/29 11:22:24;;;;;;;;;30.50;29.25;;;;;;;;5099684;27;45480;-71
2022/03/29 11:24:50;;;;;;;;;33.75;32.75;;;;;;;;5075412;27;45902;-69
2022/03/29 11:27:22;;;;;;;;;32.25;31.00;;;;;;;;5077270;27;45610;-71
2022/03/29 11:29:48;;;;;;;;;41.00;32.50;;;;;;;;5083874;27;46487;-69
2022/03/29 11:32:14;;;;;;;;;36.50;32.75;;;;;;;;5077221;27;45562;-70
2022/03/29 11:34:40;;;;;;;;;34.75;32.50;;;;;;;;5089374;27;45641;-70
2022/03/29 11:37:06;;;;;;;;;40.50;34.50;;;;;;;;5074006;27;45518;-72
2022/03/29 11:39:31;;;;;;;;;39.50;33.75;;;;;;;;5079190;27;45619;-71
2022/03/29 11:41:56;;;;;;;;;31.75;28.75;;;;;;;;5081447;27;46577;-71
2022/03/29 11:44:23;;;;;;;;;34.25;31.75;;;;;;;;5075942;27;45727;-71
2022/03/29 11:46:50;;;;;;;;;37.50;32.25;;;;;;;;5087935;27;45545;-70
2022/03/29 11:49:17;;;;;;;;;36.75;29.75;;;;;;;;5075396;27;45545;-69
2022/03/29 11:51:42;;;;;;;;;36.50;32.25;;;;;;;;5079557;27;45386;-70
2022/03/29 11:54:07;;;;;;;;;35.50;30.50;;;;;;;;5079779;27;45896;-70
2022/03/29 11:56:35;;;;;;;;;33.50;29.75;;;;;;;;5074637;27;46113;-71
2022/03/29 11:59:01;;;;;;;;;35.00;30.00;;;;;;;;5084224;27;48331;-70
2022/03/29 12:01:31;;;;;;;;;33.75;28.50;;;;;;;;5076675;27;46121;-70
2022/03/29 12:03:57;;;;;;;;;37.25;33.75;;;;;;;;5080296;27;45632;-71
2022/03/29 12:06:22;;;;;;;;;31.25;27.50;;;;;;;;5078864;27;45433;-70
2022/03/29 12:08:55;;;;;;;;;39.75;28.75;;;;;;;;5076506;27;45654;-70
2022/03/29 12:11:29;;;;;;;;;29.25;28.25;;;;;;;;5069632;27;45626;-70
2022/03/29 12:13:59;;;;;;;;;39.75;33.75;;;;;;;;5075906;27;46534;-70
2022/03/29 12:16:25;;;;;;;;;33.00;31.25;;;;;;;;5075926;27;45336;-70
2022/03/29 12:18:50;;;;;;;;;33.75;29.75;;;;;;;;5075057;27;48724;-71
2022/03/29 12:21:17;;;;;;;;;34.75;33.25;;;;;;;;5076645;27;45337;-70
2022/03/29 12:23:43;;;;;;;;;28.75;26.00;;;;;;;;5075302;27;45432;-70
2022/03/29 12:26:13;;;;;;;;;36.50;33.50;;;;;;;;5076784;27;45505;-71
2022/03/29 12:28:40;;;;;;;;;45.50;37.00;;;;;;;;5070624;28;47915;-71
2022/03/29 12:31:10;;;;;;;;;41.75;33.75;;;;;;;;5078011;27;45470;-69
2022/03/29 12:33:36;;;;;;;;;33.25;33.00;;;;;;;;5076701;27;45607;-69
2022/03/29 12:36:15;;;;;;;;;39.25;35.50;;;;;;;;5076290;27;45498;-69
2022/03/29 12:38:45;;;;;;;;;36.75;31.75;;;;;;;;5074887;27;45514;-70
2022/03/29 12:41:12;;;;;;;;;41.75;37.00;;;;;;;;5059329;28;45410;-69
2022/03/29 12:43:38;;;;;;;;;45.75;36.75;;;;;;;;5074486;28;45539;-71
2022/03/29 12:46:11;;;;;;;;;36.00;30.50;;;;;;;;5073475;28;45571;-70
2022/03/29 12:48:37;;;;;;;;;40.75;32.75;;;;;;;;5073488;28;47639;-70
2022/03/29 12:51:06;;;;;;;;;42.25;35.50;;;;;;;;5072920;28;45644;-70
2022/03/29 12:53:31;;;;;;;;;39.25;33.75;;;;;;;;5074966;27;45366;-70
2022/03/29 12:55:57;;;;;;;;;37.00;34.50;;;;;;;;5073935;27;45427;-70
2022/03/29 12:58:35;;;;;;;;;42.50;36.75;;;;;;;;5074753;27;46116;-69
2022/03/29 13:01:01;;;;;;;;;33.50;31.50;;;;;;;;5065974;28;46648;-70
2022/03/29 13:03:27;;;;;;;;;36.00;29.50;;;;;;;;5066811;28;45385;-70
2022/03/29 13:05:52;;;;;;;;;42.75;38.50;;;;;;;;5067286;28;45535;-69
2022/03/29 13:08:21;;;;;;;;;54.00;44.25;;;;;;;;5070979;28;47351;-71
2022/03/29 13:10:49;;;;;;;;;44.25;38.00;;;;;;;;5072697;28;45472;-67
2022/03/29 13:13:28;;;;;;;;;56.25;44.75;;;;;;;;5075064;27;45429;-70
2022/03/29 13:15:56;;;;;;;;;41.25;36.25;;;;;;;;5067257;28;45507;-71
2022/03/29 13:18:25;;;;;;;;;33.75;29.25;;;;;;;;5066968;28;47825;-71
2022/03/29 13:20:51;;;;;;;;;31.25;29.50;;;;;;;;5074377;27;45366;-71
2022/03/29 13:23:32;;;;;;;;;27.25;23.75;;;;;;;;5072849;27;45489;-70
2022/03/29 13:25:57;;;;;;;;;33.00;28.75;;;;;;;;5072749;28;45483;-71
2022/03/29 13:28:23;;;;;;;;;32.75;30.50;;;;;;;;5074263;28;46019;-71
2022/03/29 13:30:49;;;;;;;;;35.75;33.00;;;;;;;;5066654;28;49717;-71
2022/03/29 13:33:14;;;;;;;;;30.00;28.50;;;;;;;;5066798;28;45538;-69
2022/03/29 13:35:43;;;;;;;;;28.75;24.75;;;;;;;;5074199;28;45358;-71
2022/03/29 13:38:08;;;;;;;;;30.25;26.00;;;;;;;;5057810;28;45679;-71
2022/03/29 13:40:34;;;;;;;;;29.25;28.25;;;;;;;;5074645;27;45449;-71
2022/03/29 13:42:59;;;;;;;;;32.00;30.50;;;;;;;;5072891;28;45865;-71
2022/03/29 13:45:24;;;;;;;;;29.50;26.50;;;;;;;;5073468;28;45647;-71
2022/03/29 13:47:50;;;;;;;;;25.00;23.00;;;;;;;;5073915;27;45509;-70
2022/03/29 13:50:15;;;;;;;;;19.50;16.75;;;;;;;;5074152;28;45487;-69
2022/03/29 13:52:40;;;;;;;;;31.50;28.25;;;;;;;;5073321;28;45282;-70
2022/03/29 13:55:07;;;;;;;;;33.75;25.75;;;;;;;;5074369;28;45566;-70
2022/03/29 13:57:32;;;;;;;;;26.25;23.25;;;;;;;;5073748;27;45853;-70
2022/03/29 13:59:58;;;;;;;;;25.50;23.50;;;;;;;;5073521;28;45512;-71
2022/03/29 14:02:23;;;;;;;;;16.75;15.25;;;;;;;;5073244;28;45530;-70
2022/03/29 14:04:48;;;;;;;;;26.50;22.25;;;;;;;;5073876;27;45537;-71
2022/03/29 14:07:13;;;;;;;;;22.50;20.75;;;;;;;;5071975;28;48358;-70
2022/03/29 14:09:39;;;;;;;;;23.00;19.00;;;;;;;;5071525;28;45545;-70
2022/03/29 14:12:04;;;;;;;;;19.50;16.25;;;;;;;;5071695;28;45384;-70
2022/03/29 14:14:29;;;;;;;;;19.00;16.25;;;;;;;;5070523;28;45638;-71
2022/03/29 14:16:55;;;;;;;;;20.25;18.75;;;;;;;;5072780;28;45851;-71
2022/03/29 14:19:20;;;;;;;;;22.50;18.75;;;;;;;;5074349;28;45514;-71
2022/03/29 14:21:45;;;;;;;;;23.25;18.50;;;;;;;;5073571;28;46935;-71
2022/03/29 14:24:13;;;;;;;;;26.50;24.50;;;;;;;;5073367;27;45513;-71